createdAt,value
2019-01-04T00:00:04.469Z,0.2
2019-01-04T00:01:14.412Z,0.2
2019-01-04T00:02:24.358Z,0.27
2019-01-04T00:03:34.285Z,0.31
2019-01-04T00:04:43.716Z,0.29
2019-01-04T00:05:53.431Z,0.3
2019-01-04T00:07:02.871Z,0.36
2019-01-04T00:08:12.871Z,0.37
2019-01-04T00:09:22.815Z,0.33
2019-01-04T00:10:32.747Z,0.42
2019-01-04T00:11:42.444Z,0.47
2019-01-04T00:12:51.893Z,0.4
2019-01-04T00:14:01.581Z,0.36
2019-01-04T00:15:11.579Z,0.45
2019-01-04T00:16:21.530Z,0.44
2019-01-04T00:17:31.481Z,0.44
2019-01-04T00:18:41.171Z,0.45
2019-01-04T00:19:51.109Z,0.44
2019-01-04T00:21:00.886Z,0.42
2019-01-04T00:22:10.823Z,0.52
2019-01-04T00:23:20.766Z,0.55
2019-01-04T00:24:30.453Z,0.49
2019-01-04T00:25:40.155Z,0.49
2019-01-04T00:26:49.331Z,0.49
2019-01-04T00:27:59.029Z,0.49
2019-01-04T00:29:08.720Z,0.51
2019-01-04T00:30:18.407Z,0.56
2019-01-04T00:31:27.841Z,0.44
2019-01-04T00:32:37.287Z,0.51
2019-01-04T00:33:47.217Z,0.61
2019-01-04T00:34:57.139Z,0.49
2019-01-04T00:36:06.828Z,0.49
2019-01-04T00:37:16.765Z,0.58
2019-01-04T00:38:26.712Z,0.55
2019-01-04T00:39:37.886Z,0.66
2019-01-04T00:40:47.573Z,0.63
2019-01-04T00:41:57.012Z,0.67
2019-01-04T00:43:06.709Z,0.73
2019-01-04T00:44:16.687Z,0.67
2019-01-04T00:45:26.628Z,0.7
2019-01-04T00:46:36.301Z,0.73
2019-01-04T00:47:46.241Z,0.76
2019-01-04T00:48:56.173Z,0.71
2019-01-04T00:50:06.130Z,0.73
2019-01-04T00:51:16.077Z,0.67
2019-01-04T00:52:25.751Z,0.71
2019-01-04T00:53:35.466Z,0.74
2019-01-04T00:54:45.409Z,0.71
2019-01-04T00:55:55.339Z,0.73
2019-01-04T00:57:05.031Z,0.76
2019-01-04T00:58:14.965Z,0.76
2019-01-04T00:59:24.895Z,0.77
2019-01-04T01:00:34.892Z,0.71
2019-01-04T01:01:44.846Z,0.78
2019-01-04T01:02:54.781Z,0.68
2019-01-04T01:04:04.471Z,0.82
2019-01-04T01:05:14.405Z,0.78
2019-01-04T01:06:24.094Z,0.81
2019-01-04T01:07:34.034Z,0.7
2019-01-04T01:08:43.485Z,0.71
2019-01-04T01:09:53.426Z,0.82
2019-01-04T01:11:03.358Z,0.74
2019-01-04T01:12:13.294Z,0.78
2019-01-04T01:13:22.980Z,0.81
2019-01-04T01:14:32.418Z,0.86
2019-01-04T01:15:42.104Z,0.86
2019-01-04T01:16:52.877Z,0.77
2019-01-04T01:18:02.600Z,0.78
2019-01-04T01:19:12.535Z,0.82
2019-01-04T01:20:21.986Z,0.88
2019-01-04T01:21:31.915Z,0.84
2019-01-04T01:22:41.851Z,0.92
2019-01-04T01:23:51.526Z,0.94
2019-01-04T01:25:01.202Z,0.91
2019-01-04T01:26:11.160Z,0.94
2019-01-04T01:27:21.075Z,0.91
2019-01-04T01:28:30.762Z,0.88
2019-01-04T01:29:40.697Z,0.91
2019-01-04T01:30:50.423Z,0.94
2019-01-04T01:32:00.101Z,0.94
2019-01-04T01:33:10.035Z,0.92
2019-01-04T01:34:19.971Z,0.96
2019-01-04T01:35:29.893Z,1.02
2019-01-04T01:36:39.345Z,1.02
2019-01-04T01:37:49.525Z,0.95
2019-01-04T01:38:59.473Z,1
2019-01-04T01:40:09.414Z,1.04
2019-01-04T01:41:19.354Z,1.04
2019-01-04T01:42:28.541Z,0.94
2019-01-04T01:43:38.462Z,0.88
2019-01-04T01:44:48.152Z,1.02
2019-01-04T01:45:58.089Z,0.92
2019-01-04T01:47:07.772Z,1.02
2019-01-04T01:48:17.713Z,1.02
2019-01-04T01:49:27.413Z,0.96
2019-01-04T01:50:37.357Z,1.03
2019-01-04T01:51:47.334Z,0.95
2019-01-04T01:52:56.758Z,0.89
2019-01-04T01:54:06.447Z,0.99
2019-01-04T01:55:16.382Z,1
2019-01-04T01:56:25.825Z,1.02
2019-01-04T01:57:35.767Z,1
2019-01-04T01:58:45.445Z,1
2019-01-04T01:59:54.876Z,1.04
2019-01-04T02:01:04.551Z,0.92
2019-01-04T02:02:14.499Z,0.95
2019-01-04T02:03:24.430Z,0.88
2019-01-04T02:04:34.377Z,0.95
2019-01-04T02:05:44.347Z,0.91
2019-01-04T02:06:53.831Z,0.89
2019-01-04T02:08:03.526Z,0.85
2019-01-04T02:09:13.506Z,0.89
2019-01-04T02:10:23.436Z,0.91
2019-01-04T02:11:33.372Z,0.92
2019-01-04T02:12:43.064Z,0.88
2019-01-04T02:13:52.986Z,0.94
2019-01-04T02:15:02.695Z,0.95
2019-01-04T02:16:12.392Z,0.86
2019-01-04T02:17:22.093Z,0.86
2019-01-04T02:18:32.026Z,0.88
2019-01-04T02:19:41.956Z,0.82
2019-01-04T02:20:51.666Z,0.88
2019-01-04T02:22:01.104Z,0.91
2019-01-04T02:23:10.783Z,0.88
2019-01-04T02:24:20.475Z,0.91
2019-01-04T02:25:30.402Z,0.88
2019-01-04T02:26:40.118Z,0.88
2019-01-04T02:27:50.066Z,0.94
2019-01-04T02:29:00.000Z,0.86
2019-01-04T02:30:09.447Z,0.81
2019-01-04T02:31:18.901Z,0.89
2019-01-04T02:32:28.850Z,0.86
2019-01-04T02:33:38.572Z,0.91
2019-01-04T02:34:48.027Z,0.88
2019-01-04T02:35:57.974Z,0.94
2019-01-04T02:37:07.919Z,0.91
2019-01-04T02:38:17.609Z,0.85
2019-01-04T02:39:27.532Z,0.91
2019-01-04T02:40:37.482Z,0.96
2019-01-04T02:41:47.178Z,0.85
2019-01-04T02:42:57.103Z,0.86
2019-01-04T02:44:06.806Z,0.84
2019-01-04T02:45:16.750Z,0.86
2019-01-04T02:46:26.700Z,0.86
2019-01-04T02:47:36.666Z,0.86
2019-01-04T02:48:46.359Z,0.78
2019-01-04T02:49:56.296Z,0.85
2019-01-04T02:51:06.001Z,0.81
2019-01-04T02:52:15.942Z,0.7
2019-01-04T02:53:25.630Z,0.7
2019-01-04T02:54:35.327Z,0.7
2019-01-04T02:55:45.268Z,0.66
2019-01-04T02:56:55.234Z,0.71
2019-01-04T02:58:05.178Z,0.76
2019-01-04T02:59:14.875Z,0.71
2019-01-04T03:00:24.825Z,0.74
2019-01-04T03:01:34.828Z,0.68
2019-01-04T03:02:44.524Z,0.67
2019-01-04T03:03:54.462Z,0.84
2019-01-04T03:05:04.404Z,0.68
2019-01-04T03:06:14.128Z,0.77
2019-01-04T03:07:24.090Z,0.71
2019-01-04T03:08:34.024Z,0.71
2019-01-04T03:09:43.969Z,0.74
2019-01-04T03:10:53.655Z,0.67
2019-01-04T03:12:03.612Z,0.68
2019-01-04T03:13:13.294Z,0.68
2019-01-04T03:14:22.276Z,0.74
2019-01-04T03:15:32.241Z,0.71
2019-01-04T03:16:42.180Z,0.7
2019-01-04T03:17:51.875Z,0.7
2019-01-04T03:19:01.823Z,0.64
2019-01-04T03:20:11.067Z,0.68
2019-01-04T03:21:21.010Z,0.7
2019-01-04T03:22:30.949Z,0.73
2019-01-04T03:23:40.896Z,0.71
2019-01-04T03:24:50.859Z,0.66
2019-01-04T03:26:00.824Z,0.7
2019-01-04T03:27:10.760Z,0.7
2019-01-04T03:28:20.697Z,0.68
2019-01-04T03:29:30.677Z,0.73
2019-01-04T03:30:40.391Z,0.7
2019-01-04T03:31:50.391Z,0.73
2019-01-04T03:33:00.374Z,0.7
2019-01-04T03:34:10.354Z,0.71
2019-01-04T03:35:19.846Z,0.67
2019-01-04T03:36:29.550Z,0.68
2019-01-04T03:37:38.990Z,0.68
2019-01-04T03:38:48.936Z,0.73
2019-01-04T03:39:58.631Z,0.71
2019-01-04T03:41:08.316Z,0.73
2019-01-04T03:42:18.011Z,0.64
2019-01-04T03:43:27.714Z,0.64
2019-01-04T03:44:37.665Z,0.7
2019-01-04T03:45:47.362Z,0.64
2019-01-04T03:46:57.315Z,0.66
2019-01-04T03:48:07.243Z,0.71
2019-01-04T03:49:17.196Z,0.67
2019-01-04T03:50:27.147Z,0.67
2019-01-04T03:51:37.081Z,0.68
2019-01-04T03:52:46.772Z,0.66
2019-01-04T03:53:56.719Z,0.68
2019-01-04T03:55:06.713Z,0.68
2019-01-04T03:56:16.658Z,0.71
2019-01-04T03:57:26.355Z,0.66
2019-01-04T03:58:36.069Z,0.7
2019-01-04T03:59:45.506Z,0.73
2019-01-04T04:00:55.456Z,0.74
2019-01-04T04:02:05.409Z,0.73
2019-01-04T04:03:15.107Z,0.68
2019-01-04T04:04:24.807Z,0.68
2019-01-04T04:05:34.736Z,0.68
2019-01-04T04:06:44.664Z,0.7
2019-01-04T04:07:54.620Z,0.76
2019-01-04T04:09:04.574Z,0.76
2019-01-04T04:10:14.513Z,0.71
2019-01-04T04:11:24.483Z,0.78
2019-01-04T04:12:34.421Z,0.74
2019-01-04T04:13:44.357Z,0.67
2019-01-04T04:14:54.304Z,0.71
2019-01-04T04:16:03.994Z,0.74
2019-01-04T04:17:13.694Z,0.71
2019-01-04T04:18:23.378Z,0.73
2019-01-04T04:19:33.309Z,0.73
2019-01-04T04:20:42.984Z,0.71
2019-01-04T04:21:52.437Z,0.73
2019-01-04T04:23:02.381Z,0.73
2019-01-04T04:24:12.351Z,0.64
2019-01-04T04:25:22.029Z,0.73
2019-01-04T04:26:31.475Z,0.71
2019-01-04T04:27:41.179Z,0.77
2019-01-04T04:28:51.140Z,0.68
2019-01-04T04:30:00.833Z,0.64
2019-01-04T04:31:10.752Z,0.63
2019-01-04T04:32:20.691Z,0.58
2019-01-04T04:33:30.628Z,0.63
2019-01-04T04:34:39.817Z,0.55
2019-01-04T04:35:50.003Z,0.59
2019-01-04T04:36:59.940Z,0.66
2019-01-04T04:38:09.397Z,0.52
2019-01-04T04:39:19.080Z,0.52
2019-01-04T04:40:28.809Z,0.56
2019-01-04T04:41:38.499Z,0.52
2019-01-04T04:42:48.192Z,0.52
2019-01-04T04:43:58.141Z,0.59
2019-01-04T04:45:07.838Z,0.51
2019-01-04T04:46:17.768Z,0.51
2019-01-04T04:47:27.456Z,0.52
2019-01-04T04:48:37.170Z,0.56
2019-01-04T04:49:47.114Z,0.59
2019-01-04T04:50:57.055Z,0.64
2019-01-04T04:52:06.504Z,0.55
2019-01-04T04:53:16.447Z,0.56
2019-01-04T04:54:26.145Z,0.56
2019-01-04T04:55:36.093Z,0.59
2019-01-04T04:56:46.035Z,0.55
2019-01-04T04:57:55.970Z,0.55
2019-01-04T04:59:05.653Z,0.51
2019-01-04T05:00:15.594Z,0.51
2019-01-04T05:01:25.542Z,0.52
2019-01-04T05:02:35.531Z,0.47
2019-01-04T05:03:45.227Z,0.55
2019-01-04T05:04:55.173Z,0.51
2019-01-04T05:06:04.675Z,0.59
2019-01-04T05:07:14.374Z,0.49
2019-01-04T05:08:24.319Z,0.55
2019-01-04T05:09:34.259Z,0.52
2019-01-04T05:10:43.983Z,0.42
2019-01-04T05:11:53.937Z,0.59
2019-01-04T05:13:03.622Z,0.51
2019-01-04T05:14:13.325Z,0.48
2019-01-04T05:15:22.779Z,0.48
2019-01-04T05:16:32.711Z,0.52
2019-01-04T05:17:42.398Z,0.52
2019-01-04T05:18:52.082Z,0.56
2019-01-04T05:20:02.031Z,0.58
2019-01-04T05:21:11.968Z,0.61
2019-01-04T05:22:21.913Z,0.61
2019-01-04T05:23:31.857Z,0.64
2019-01-04T05:24:41.559Z,0.68
2019-01-04T05:25:51.497Z,0.71
2019-01-04T05:27:01.183Z,0.66
2019-01-04T05:28:10.879Z,0.68
2019-01-04T05:29:20.839Z,0.71
2019-01-04T05:30:30.776Z,0.67
2019-01-04T05:31:40.745Z,0.71
2019-01-04T05:32:50.447Z,0.77
2019-01-04T05:33:59.887Z,0.84
2019-01-04T05:35:09.566Z,0.81
2019-01-04T05:36:19.023Z,0.84
2019-01-04T05:37:28.962Z,0.78
2019-01-04T05:38:38.912Z,0.85
2019-01-04T05:39:48.609Z,0.78
2019-01-04T05:40:58.043Z,0.85
2019-01-04T05:42:08.003Z,0.82
2019-01-04T05:43:17.701Z,0.82
2019-01-04T05:44:27.692Z,0.81
2019-01-04T05:45:37.672Z,0.82
2019-01-04T05:46:47.639Z,0.85
2019-01-04T05:47:57.579Z,0.84
2019-01-04T05:49:07.561Z,0.76
2019-01-04T05:50:17.500Z,0.88
2019-01-04T05:51:28.571Z,0.95
2019-01-04T05:52:38.618Z,0.85
2019-01-04T05:53:48.553Z,0.95
2019-01-04T05:54:58.251Z,0.91
2019-01-04T05:56:08.189Z,0.94
2019-01-04T05:57:18.129Z,0.89
2019-01-04T05:58:28.081Z,0.88
2019-01-04T05:59:38.022Z,0.82
2019-01-04T06:00:47.739Z,0.78
2019-01-04T06:01:57.688Z,0.82
2019-01-04T06:03:07.637Z,0.81
2019-01-04T06:04:17.360Z,0.81
2019-01-04T06:05:27.322Z,0.81
2019-01-04T06:06:36.766Z,0.82
2019-01-04T06:07:46.725Z,0.78
2019-01-04T06:08:56.431Z,0.78
2019-01-04T06:10:06.377Z,0.86
2019-01-04T06:11:16.314Z,0.85
2019-01-04T06:12:26.275Z,0.81
2019-01-04T06:13:35.720Z,0.86
2019-01-04T06:14:45.681Z,0.77
2019-01-04T06:15:55.627Z,0.82
2019-01-04T06:17:05.557Z,0.82
2019-01-04T06:18:15.260Z,0.89
2019-01-04T06:19:24.955Z,0.91
2019-01-04T06:20:34.892Z,0.86
2019-01-04T06:21:44.829Z,0.81
2019-01-04T06:22:54.779Z,0.86
2019-01-04T06:24:04.721Z,0.89
2019-01-04T06:25:14.153Z,0.84
2019-01-04T06:26:24.101Z,0.84
2019-01-04T06:27:34.119Z,0.81
2019-01-04T06:28:43.580Z,0.82
2019-01-04T06:29:53.281Z,0.86
2019-01-04T06:31:03.219Z,0.86
2019-01-04T06:32:13.175Z,0.82
2019-01-04T06:33:23.119Z,0.94
2019-01-04T06:34:32.804Z,0.86
2019-01-04T06:35:42.255Z,0.91
2019-01-04T06:36:52.219Z,0.94
2019-01-04T06:38:02.451Z,0.94
2019-01-04T06:39:12.391Z,0.91
2019-01-04T06:40:22.077Z,0.88
2019-01-04T06:41:32.025Z,0.85
2019-01-04T06:42:41.712Z,0.89
2019-01-04T06:43:51.402Z,1
2019-01-04T06:45:01.114Z,0.89
2019-01-04T06:46:10.556Z,1
2019-01-04T06:47:20.494Z,0.99
2019-01-04T06:48:30.177Z,1.03
2019-01-04T06:49:39.940Z,1.1
2019-01-04T06:50:49.632Z,1.06
2019-01-04T06:51:59.323Z,1.07
2019-01-04T06:53:09.010Z,0.95
2019-01-04T06:54:18.687Z,1.04
2019-01-04T06:55:28.623Z,0.96
2019-01-04T06:56:38.569Z,1.04
2019-01-04T06:57:48.289Z,0.96
2019-01-04T06:58:58.229Z,1.03
2019-01-04T07:00:07.912Z,1.16
2019-01-04T07:01:17.605Z,1.12
2019-01-04T07:02:27.537Z,1.12
2019-01-04T07:03:37.476Z,1.16
2019-01-04T07:04:47.168Z,1.1
2019-01-04T07:05:57.099Z,1.12
2019-01-04T07:07:06.783Z,1.2
2019-01-04T07:08:16.713Z,1.2
2019-01-04T07:09:26.656Z,1.18
2019-01-04T07:10:36.602Z,1.14
2019-01-04T07:11:46.968Z,1.2
2019-01-04T07:12:56.955Z,1.12
2019-01-04T07:14:06.132Z,1.14
2019-01-04T07:15:16.065Z,1.1
2019-01-04T07:16:25.744Z,1.25
2019-01-04T07:17:35.684Z,1.2
2019-01-04T07:18:45.629Z,1.25
2019-01-04T07:19:55.567Z,1.24
2019-01-04T07:21:05.248Z,1.24
2019-01-04T07:22:14.928Z,1.27
2019-01-04T07:23:24.875Z,1.28
2019-01-04T07:24:34.567Z,1.21
2019-01-04T07:25:44.511Z,1.24
2019-01-04T07:26:53.941Z,1.25
2019-01-04T07:28:03.671Z,1.2
2019-01-04T07:29:13.375Z,1.14
2019-01-04T07:30:23.340Z,1.14
2019-01-04T07:31:33.268Z,1.12
2019-01-04T07:32:42.695Z,1.13
2019-01-04T07:33:52.129Z,1.14
2019-01-04T07:35:02.085Z,1.13
2019-01-04T07:36:12.014Z,1.12
2019-01-04T07:37:21.704Z,1.03
2019-01-04T07:38:31.653Z,1
2019-01-04T07:39:41.577Z,0.99
2019-01-04T07:40:51.516Z,0.96
2019-01-04T07:42:01.206Z,0.95
2019-01-04T07:43:16.287Z,0.92
2019-01-04T07:44:26.269Z,0.94
2019-01-04T07:45:35.954Z,0.89
2019-01-04T07:46:45.398Z,0.95
2019-01-04T07:47:56.437Z,1
2019-01-04T07:49:06.388Z,0.99
2019-01-04T07:50:16.072Z,0.89
2019-01-04T07:51:26.004Z,0.94
2019-01-04T07:52:35.954Z,0.91
2019-01-04T07:53:45.631Z,0.99
2019-01-04T07:54:55.562Z,0.89
2019-01-04T07:56:05.478Z,0.91
2019-01-04T07:57:15.162Z,1.02
2019-01-04T07:58:25.101Z,0.91
2019-01-04T07:59:34.784Z,1.04
2019-01-04T08:00:44.705Z,1.02
2019-01-04T08:01:54.650Z,1.02
2019-01-04T08:03:04.342Z,0.95
2019-01-04T08:04:14.271Z,1.03
2019-01-04T08:05:24.199Z,0.99
2019-01-04T08:06:34.136Z,1.07
2019-01-04T08:07:44.074Z,1.02
2019-01-04T08:08:53.778Z,1.07
2019-01-04T08:10:03.262Z,1.13
2019-01-04T08:11:13.188Z,1.1
2019-01-04T08:12:22.881Z,1.12
2019-01-04T08:13:32.565Z,1.13
2019-01-04T08:14:42.505Z,1.12
2019-01-04T08:15:51.943Z,1.13
2019-01-04T08:17:01.631Z,1.12
2019-01-04T08:18:11.070Z,1.13
2019-01-04T08:19:20.751Z,1.13
2019-01-04T08:20:30.450Z,1.16
2019-01-04T08:21:40.389Z,1.16
2019-01-04T08:22:50.321Z,1.22
2019-01-04T08:23:59.998Z,1.22
2019-01-04T08:25:09.467Z,1.25
2019-01-04T08:26:19.410Z,1.28
2019-01-04T08:27:29.344Z,1.22
2019-01-04T08:28:38.787Z,1.24
2019-01-04T08:29:48.713Z,1.27
2019-01-04T08:30:58.394Z,1.22
2019-01-04T08:32:08.338Z,1.32
2019-01-04T08:33:18.264Z,1.42
2019-01-04T08:34:28.216Z,1.32
2019-01-04T08:35:38.140Z,1.38
2019-01-04T08:36:47.820Z,1.32
2019-01-04T08:37:57.765Z,1.36
2019-01-04T08:39:07.710Z,1.38
2019-01-04T08:40:16.880Z,1.48
2019-01-04T08:41:26.561Z,1.43
2019-01-04T08:42:37.400Z,1.38
2019-01-04T08:43:47.436Z,1.34
2019-01-04T08:44:57.138Z,1.34
2019-01-04T08:46:06.808Z,1.32
2019-01-04T08:47:16.753Z,1.38
2019-01-04T08:48:26.678Z,1.34
2019-01-04T08:49:36.394Z,1.48
2019-01-04T08:50:46.076Z,1.4
2019-01-04T08:51:56.020Z,1.43
2019-01-04T08:53:05.710Z,1.42
2019-01-04T08:54:15.634Z,1.48
2019-01-04T08:55:25.563Z,1.48
2019-01-04T08:56:35.236Z,1.45
2019-01-04T08:57:46.037Z,1.48
2019-01-04T08:58:55.975Z,1.53
2019-01-04T09:00:05.650Z,1.53
2019-01-04T09:01:15.333Z,1.52
2019-01-04T09:02:25.008Z,1.58
2019-01-04T09:03:34.439Z,1.53
2019-01-04T09:04:44.376Z,1.5
2019-01-04T09:05:54.324Z,1.61
2019-01-04T09:07:04.278Z,1.6
2019-01-04T09:08:14.235Z,1.6
2019-01-04T09:09:24.174Z,1.63
2019-01-04T09:10:34.162Z,1.64
2019-01-04T09:11:43.844Z,1.66
2019-01-04T09:12:53.538Z,1.63
2019-01-04T09:14:03.482Z,1.66
2019-01-04T09:15:13.431Z,1.68
2019-01-04T09:16:23.123Z,1.81
2019-01-04T09:17:33.074Z,1.75
2019-01-04T09:18:43.079Z,1.68
2019-01-04T09:19:52.778Z,1.67
2019-01-04T09:21:02.260Z,1.79
2019-01-04T09:22:12.187Z,1.79
2019-01-04T09:23:23.421Z,1.79
2019-01-04T09:24:33.358Z,1.85
2019-01-04T09:25:43.056Z,1.86
2019-01-04T09:26:53.018Z,1.82
2019-01-04T09:28:02.974Z,1.89
2019-01-04T09:29:12.410Z,1.89
2019-01-04T09:30:22.346Z,1.92
2019-01-04T09:31:32.308Z,1.86
2019-01-04T09:32:41.999Z,1.92
2019-01-04T09:33:51.993Z,1.93
2019-01-04T09:35:02.355Z,1.95
2019-01-04T09:36:12.322Z,1.89
2019-01-04T09:37:21.503Z,1.95
2019-01-04T09:38:31.437Z,1.93
2019-01-04T09:39:41.375Z,1.97
2019-01-04T09:40:51.070Z,1.95
2019-01-04T09:42:00.765Z,1.97
2019-01-04T09:43:10.442Z,1.92
2019-01-04T09:44:20.376Z,1.92
2019-01-04T09:45:30.345Z,1.89
2019-01-04T09:46:40.292Z,1.95
2019-01-04T09:47:49.989Z,1.93
2019-01-04T09:48:59.674Z,1.92
2019-01-04T09:50:09.124Z,1.95
2019-01-04T09:51:18.816Z,1.97
2019-01-04T09:52:28.745Z,2
2019-01-04T09:53:38.428Z,1.93
2019-01-04T09:54:48.360Z,1.86
2019-01-04T09:55:58.038Z,1.93
2019-01-04T09:57:07.471Z,1.95
2019-01-04T09:58:16.927Z,1.97
2019-01-04T09:59:26.611Z,2
2019-01-04T10:00:36.556Z,1.95
2019-01-04T10:01:46.509Z,2.03
2019-01-04T10:02:56.201Z,1.92
2019-01-04T10:04:06.151Z,1.98
2019-01-04T10:05:16.102Z,2.01
2019-01-04T10:06:26.042Z,2.01
2019-01-04T10:07:35.977Z,2.01
2019-01-04T10:08:49.490Z,2.01
2019-01-04T10:09:59.421Z,2.04
2019-01-04T10:11:09.130Z,2.08
2019-01-04T10:12:18.827Z,2.05
2019-01-04T10:13:28.766Z,2.01
2019-01-04T10:14:38.710Z,2.04
2019-01-04T10:15:48.143Z,2.04
2019-01-04T10:16:58.087Z,2.07
2019-01-04T10:18:07.771Z,2.04
2019-01-04T10:19:17.710Z,2.1
2019-01-04T10:20:27.148Z,2.08
2019-01-04T10:21:37.080Z,2.1
2019-01-04T10:22:46.761Z,2.19
2019-01-04T10:23:56.708Z,2.25
2019-01-04T10:25:06.652Z,2.08
2019-01-04T10:26:16.598Z,2.15
2019-01-04T10:27:26.535Z,2.23
2019-01-04T10:28:36.475Z,2.25
2019-01-04T10:29:46.182Z,2.23
2019-01-04T10:30:56.122Z,2.28
2019-01-04T10:32:06.091Z,2.21
2019-01-04T10:33:15.784Z,2.25
2019-01-04T10:34:25.499Z,2.26
2019-01-04T10:35:35.450Z,2.32
2019-01-04T10:36:44.879Z,2.26
2019-01-04T10:37:54.868Z,2.32
2019-01-04T10:39:04.803Z,2.36
2019-01-04T10:40:16.059Z,2.28
2019-01-04T10:41:25.746Z,2.32
2019-01-04T10:42:35.701Z,2.23
2019-01-04T10:43:45.403Z,2.32
2019-01-04T10:44:55.405Z,2.39
2019-01-04T10:46:04.854Z,2.28
2019-01-04T10:47:14.809Z,2.25
2019-01-04T10:48:24.498Z,2.26
2019-01-04T10:49:34.461Z,2.3
2019-01-04T10:50:44.410Z,2.33
2019-01-04T10:51:54.115Z,2.3
2019-01-04T10:53:03.571Z,2.41
2019-01-04T10:54:13.268Z,2.37
2019-01-04T10:55:23.226Z,2.43
2019-01-04T10:56:32.915Z,2.47
2019-01-04T10:57:42.605Z,2.41
2019-01-04T10:58:52.596Z,2.39
2019-01-04T11:00:02.591Z,2.39
2019-01-04T11:01:12.283Z,2.41
2019-01-04T11:02:21.747Z,2.41
2019-01-04T11:03:31.693Z,2.4
2019-01-04T11:04:41.638Z,2.4
2019-01-04T11:05:51.325Z,2.5
2019-01-04T11:07:00.777Z,2.5
2019-01-04T11:08:10.712Z,2.5
2019-01-04T11:09:20.671Z,2.41
2019-01-04T11:10:30.356Z,2.46
2019-01-04T11:11:40.050Z,2.46
2019-01-04T11:12:50.035Z,2.5
2019-01-04T11:13:59.219Z,2.52
2019-01-04T11:15:08.894Z,2.46
2019-01-04T11:16:18.557Z,2.51
2019-01-04T11:17:28.501Z,2.47
2019-01-04T11:18:38.213Z,2.5
2019-01-04T11:19:47.903Z,2.57
2019-01-04T11:20:57.851Z,2.57
2019-01-04T11:22:07.574Z,2.59
2019-01-04T11:23:17.511Z,2.58
2019-01-04T11:24:27.207Z,2.61
2019-01-04T11:25:36.933Z,2.59
2019-01-04T11:26:46.875Z,2.52
2019-01-04T11:27:56.800Z,2.64
2019-01-04T11:29:06.488Z,2.61
2019-01-04T11:30:16.433Z,2.69
2019-01-04T11:31:25.872Z,2.59
2019-01-04T11:32:35.814Z,2.57
2019-01-04T11:33:45.499Z,2.68
2019-01-04T11:34:55.463Z,2.68
2019-01-04T11:36:05.419Z,2.68
2019-01-04T11:37:15.105Z,2.69
2019-01-04T11:38:25.045Z,2.69
2019-01-04T11:39:34.726Z,2.69
2019-01-04T11:40:44.675Z,2.69
2019-01-04T11:41:54.627Z,2.7
2019-01-04T11:43:04.577Z,2.76
2019-01-04T11:44:14.016Z,2.69
2019-01-04T11:45:23.955Z,2.79
2019-01-04T11:46:33.643Z,2.77
2019-01-04T11:47:43.597Z,2.75
2019-01-04T11:48:53.283Z,2.75
2019-01-04T11:50:02.975Z,2.85
2019-01-04T11:51:12.665Z,2.83
2019-01-04T11:52:22.345Z,2.85
2019-01-04T11:53:36.521Z,2.82
2019-01-04T11:54:47.693Z,2.8
2019-01-04T11:55:57.633Z,2.83
2019-01-04T11:57:07.323Z,2.9
2019-01-04T11:58:17.253Z,2.82
2019-01-04T11:59:27.200Z,2.77
2019-01-04T12:00:37.147Z,2.85
2019-01-04T12:01:47.111Z,2.8
2019-01-04T12:02:56.819Z,2.82
2019-01-04T12:04:07.037Z,2.85
2019-01-04T12:05:16.478Z,2.8
2019-01-04T12:06:27.231Z,2.8
2019-01-04T12:07:37.263Z,2.83
2019-01-04T12:08:47.177Z,2.79
2019-01-04T12:09:57.126Z,2.8
2019-01-04T12:11:07.075Z,2.8
2019-01-04T12:12:16.764Z,2.8
2019-01-04T12:13:26.453Z,2.83
2019-01-04T12:14:41.199Z,2.83
2019-01-04T12:15:51.293Z,2.87
2019-01-04T12:17:00.987Z,2.9
2019-01-04T12:18:10.927Z,2.83
2019-01-04T12:19:20.364Z,2.85
2019-01-04T12:20:30.309Z,2.8
2019-01-04T12:21:40.248Z,2.85
2019-01-04T12:22:49.958Z,2.9
2019-01-04T12:23:59.941Z,2.85
2019-01-04T12:25:09.645Z,2.82
2019-01-04T12:26:19.346Z,2.87
2019-01-04T12:27:29.089Z,2.85
2019-01-04T12:28:39.043Z,2.93
2019-01-04T12:29:48.481Z,2.94
2019-01-04T12:30:57.921Z,2.94
2019-01-04T12:32:07.877Z,2.98
2019-01-04T12:33:17.565Z,2.98
2019-01-04T12:34:26.980Z,2.97
2019-01-04T12:35:36.668Z,2.95
2019-01-04T12:36:46.365Z,2.98
2019-01-04T12:37:56.308Z,2.95
2019-01-04T12:39:05.786Z,2.95
2019-01-04T12:40:15.727Z,2.91
2019-01-04T12:41:25.699Z,2.95
2019-01-04T12:42:35.654Z,2.9
2019-01-04T12:43:50.284Z,2.95
2019-01-04T12:45:00.256Z,2.95
2019-01-04T12:46:10.216Z,2.9
2019-01-04T12:47:21.221Z,3.01
2019-01-04T12:48:31.243Z,3.01
2019-01-04T12:49:41.180Z,3.01
2019-01-04T12:50:50.867Z,2.95
2019-01-04T12:52:00.559Z,2.93
2019-01-04T12:53:10.490Z,3.01
2019-01-04T12:54:20.441Z,3.01
2019-01-04T12:55:30.400Z,2.93
2019-01-04T12:56:40.084Z,3.01
2019-01-04T12:57:49.769Z,3.01
2019-01-04T12:58:59.459Z,3.01
2019-01-04T13:00:09.148Z,2.93
2019-01-04T13:01:19.105Z,3
2019-01-04T13:02:28.820Z,2.95
2019-01-04T13:03:38.759Z,3.05
2019-01-04T13:04:48.441Z,2.94
2019-01-04T13:05:57.902Z,2.97
2019-01-04T13:07:07.841Z,2.93
2019-01-04T13:08:17.797Z,3
2019-01-04T13:09:27.502Z,2.95
2019-01-04T13:10:38.197Z,3.01
2019-01-04T13:11:47.885Z,2.94
2019-01-04T13:12:57.571Z,2.93
2019-01-04T13:14:07.521Z,2.94
2019-01-04T13:15:17.543Z,2.93
2019-01-04T13:16:27.475Z,2.93
2019-01-04T13:17:37.452Z,3
2019-01-04T13:18:46.881Z,2.95
2019-01-04T13:19:56.830Z,2.94
2019-01-04T13:21:06.521Z,2.97
2019-01-04T13:22:16.208Z,2.97
2019-01-04T13:23:26.173Z,3.03
2019-01-04T13:24:35.864Z,2.94
2019-01-04T13:25:45.790Z,2.97
2019-01-04T13:26:55.481Z,2.94
2019-01-04T13:28:05.236Z,3.03
2019-01-04T13:29:14.927Z,2.98
2019-01-04T13:30:24.886Z,2.97
2019-01-04T13:31:34.570Z,3.05
2019-01-04T13:32:44.516Z,2.94
2019-01-04T13:33:54.473Z,3.01
2019-01-04T13:35:03.956Z,3.01
2019-01-04T13:36:13.653Z,2.97
2019-01-04T13:37:23.604Z,3.06
2019-01-04T13:38:33.563Z,3.03
2019-01-04T13:39:43.507Z,3.01
2019-01-04T13:40:53.206Z,3.08
2019-01-04T13:42:03.160Z,3.05
2019-01-04T13:43:12.606Z,3.01
2019-01-04T13:44:22.314Z,3.05
2019-01-04T13:45:32.060Z,2.98
2019-01-04T13:46:41.752Z,3.01
2019-01-04T13:47:51.445Z,3.06
2019-01-04T13:49:01.390Z,3.05
2019-01-04T13:50:11.096Z,3.06
2019-01-04T13:51:21.037Z,3
2019-01-04T13:52:30.995Z,3.06
2019-01-04T13:53:40.940Z,3
2019-01-04T13:54:50.649Z,3.11
2019-01-04T13:56:00.345Z,3.05
2019-01-04T13:57:10.288Z,3.03
2019-01-04T13:58:20.226Z,3.06
2019-01-04T13:59:30.176Z,3.09
2019-01-04T14:00:40.118Z,3.08
2019-01-04T14:01:50.056Z,3.12
2019-01-04T14:03:00.140Z,3.12
2019-01-04T14:04:09.835Z,3.09
2019-01-04T14:05:19.792Z,3.05
2019-01-04T14:06:29.743Z,3.11
2019-01-04T14:07:39.699Z,3.13
2019-01-04T14:08:49.673Z,3.13
2019-01-04T14:09:59.364Z,3.08
2019-01-04T14:11:09.376Z,3.12
2019-01-04T14:12:19.316Z,3.08
2019-01-04T14:13:29.278Z,3.15
2019-01-04T14:14:38.969Z,3.09
2019-01-04T14:15:48.917Z,3.11
2019-01-04T14:16:58.919Z,3.12
2019-01-04T14:18:08.856Z,3.13
2019-01-04T14:19:18.566Z,3.12
2019-01-04T14:20:28.260Z,3.12
2019-01-04T14:21:37.700Z,3.11
2019-01-04T14:22:47.134Z,3.09
2019-01-04T14:23:57.078Z,3.12
2019-01-04T14:25:06.762Z,3.11
2019-01-04T14:26:16.714Z,3.06
2019-01-04T14:27:26.671Z,3.12
2019-01-04T14:28:36.117Z,3.12
2019-01-04T14:29:45.554Z,3.08
2019-01-04T14:30:56.492Z,3.08
2019-01-04T14:32:06.509Z,3.08
2019-01-04T14:33:16.453Z,3.03
2019-01-04T14:34:26.170Z,3.09
2019-01-04T14:35:35.862Z,3.13
2019-01-04T14:36:46.205Z,3.06
2019-01-04T14:37:55.971Z,3.12
2019-01-04T14:39:05.914Z,3.16
2019-01-04T14:40:15.624Z,3.22
2019-01-04T14:41:28.002Z,3.11
2019-01-04T14:42:37.961Z,3.13
2019-01-04T14:43:47.905Z,3.22
2019-01-04T14:44:57.861Z,3.09
2019-01-04T14:46:07.805Z,3.13
2019-01-04T14:47:17.750Z,3.09
2019-01-04T14:48:29.022Z,3.18
2019-01-04T14:49:38.971Z,3.22
2019-01-04T14:50:48.931Z,3.24
2019-01-04T14:51:58.898Z,3.21
2019-01-04T14:53:09.408Z,3.21
2019-01-04T14:54:20.165Z,3.16
2019-01-04T14:55:30.126Z,3.16
2019-01-04T14:56:39.553Z,3.18
2019-01-04T14:57:49.004Z,3.24
2019-01-04T14:58:58.953Z,3.24
2019-01-04T15:00:08.895Z,3.21
2019-01-04T15:01:18.833Z,3.13
2019-01-04T15:02:28.549Z,3.12
2019-01-04T15:03:39.093Z,3.19
2019-01-04T15:04:51.688Z,3.26
2019-01-04T15:06:01.163Z,3.22
2019-01-04T15:07:11.146Z,3.29
2019-01-04T15:08:21.090Z,3.18
2019-01-04T15:09:30.814Z,3.31
2019-01-04T15:10:40.756Z,3.21
2019-01-04T15:11:50.694Z,3.22
2019-01-04T15:13:00.120Z,3.19
2019-01-04T15:14:10.059Z,3.26
2019-01-04T15:15:19.510Z,3.37
2019-01-04T15:16:29.474Z,3.34
2019-01-04T15:17:38.925Z,3.3
2019-01-04T15:18:48.887Z,3.33
2019-01-04T15:19:58.572Z,3.29
2019-01-04T15:21:08.505Z,3.3
2019-01-04T15:22:18.496Z,3.31
2019-01-04T15:23:28.451Z,3.31
2019-01-04T15:24:38.418Z,3.34
2019-01-04T15:25:48.380Z,3.34
2019-01-04T15:26:57.828Z,3.37
2019-01-04T15:28:07.835Z,3.41
2019-01-04T15:29:17.767Z,3.33
2019-01-04T15:30:27.723Z,3.34
2019-01-04T15:31:37.173Z,3.33
2019-01-04T15:32:46.869Z,3.41